Thunder radar more information blitzortung!


Radar de pluja more information rain snow radar


Visita la nostra xarxa de llocs de meteo:

Template documentation
and downloads

And another site



No particular awareness of the weather is required.    There are no Weather-warnings

Pagina Historial Weather Underground text

Diari Resum Setembre 1, 2017 Unitats:  Imperial    Mètric   Tant
« Previous Dia
SegĂźent Dia »
Diari Setmana Mensual Anual Personalitzada
  Maxima: Minima: Media:
Temperatura: 82 °F 61.9 °F 71.6 °F
Punt de rosada: 60.4 °F 46.6 °F 56.5 °F
Humitat: 92 % 39 % 61 %
Wind Speed: 8.5 mph 0 mph 3.3 mph
RĂ fegues de vent: 8.5 mph - -
Vent:- - South
Pression baro: 30.1 in 30 in -
Precipitacions: 0 in    
Historical Graphs
 
 
Dades de taula per Setembre 1, 2017
Temps Temperatura Punt de rosada Pression baro Vent Wind Speed RĂ fegues de vent Humitat Rainfall Rate (Hourly)
00:00 67.5 °F 60.4 °F 30.1 in North 2.3 mph 2.3 mph 78 % 0 in
00:05 67.3 °F 60.4 °F 30.1 in WNW 1.2 mph   79 % 0 in
00:10 63.5 °F 59.9 °F 30.1 in NNE 1 mph 2 mph 88 % 0 in
00:20 63.5 °F 59.9 °F 30.1 in Calm   1 mph 88 % 0 in
00:30 63.1 °F 59.5 °F 30.1 in North 1 mph 2 mph 88 % 0 in
00:50 63.1 °F 59.7 °F 30.1 in WSW 1 mph 2 mph 89 % 0 in
01:00 63.1 °F 59.7 °F 30.1 in Calm     89 % 0 in
01:10 63 °F 59.7 °F 30.1 in Calm     89 % 0 in
01:20 62.8 °F 59.5 °F 30.1 in Calm   1 mph 89 % 0 in
01:30 62.6 °F 59.4 °F 30.1 in WSW 1 mph 2 mph 89 % 0 in
01:40 62.6 °F 59.4 °F 30.1 in WSW 1 mph 2 mph 89 % 0 in
01:50 62.6 °F 59.5 °F 30.1 in SW 1 mph 2 mph 90 % 0 in
02:00 62.4 °F 59.4 °F 30.1 in SW 1 mph 2 mph 90 % 0 in
02:10 62.4 °F 59.4 °F 30.1 in SW 1 mph 2 mph 90 % 0 in
02:20 62.4 °F 59.7 °F 30.1 in Calm     91 % 0 in
02:30 62.4 °F 59.7 °F 30.1 in Calm   2 mph 91 % 0 in
02:40 62.2 °F 59.9 °F 30.1 in Calm   1 mph 92 % 0 in
02:50 62.2 °F 59.9 °F 30.1 in NNE 2 mph 2 mph 92 % 0 in
03:00 62.4 °F 60.1 °F 30.1 in Calm   3 mph 92 % 0 in
03:10 62.2 °F 59.9 °F 30.1 in Calm   2 mph 92 % 0 in
03:20 62.2 °F 59.9 °F 30 in NE 1 mph 3 mph 92 % 0 in
03:30 62.2 °F 59.9 °F 30 in NE 1 mph 2 mph 92 % 0 in
03:40 62.2 °F 59.9 °F 30 in Calm     92 % 0 in
03:50 62.4 °F 60.1 °F 30.1 in Calm     92 % 0 in
04:00 62.4 °F 60.1 °F 30 in Calm   1 mph 92 % 0 in
04:10 62.6 °F 59.9 °F 30 in Calm   1 mph 91 % 0 in
04:20 62.6 °F 60.3 °F 30.1 in North 1 mph 1 mph 92 % 0 in
04:30 62.6 °F 59.9 °F 30.1 in SSW 1 mph 3 mph 91 % 0 in
04:40 62.6 °F 59.9 °F 30.1 in Calm   2 mph 91 % 0 in
04:50 62.8 °F 60.4 °F 30.1 in WSW 1 mph 2 mph 92 % 0 in
05:00 61.9 °F 58.6 °F 30.1 in West 1 mph 1 mph 89 % 0 in
05:10 62.2 °F 57.9 °F 30.1 in Calm   2 mph 86 % 0 in
05:20 63 °F 57.7 °F 30.1 in WSW 2 mph 3 mph 83 % 0 in
05:30 63.5 °F 56.8 °F 30.1 in WSW 1 mph 2 mph 79 % 0 in
05:40 64 °F 56.7 °F 30.1 in Calm   1 mph 77 % 0 in
05:50 64.4 °F 56.7 °F 30.1 in West 1 mph 3 mph 76 % 0 in
06:00 64.4 °F 56.3 °F 30.1 in West 1 mph 2 mph 75 % 0 in
06:10 64.4 °F 55.6 °F 30.1 in Calm   2 mph 73 % 0 in
11:13 67.3 °F 55.9 °F 30.1 in WSW 2 mph 2 mph 67 % 0 in
11:14 67.3 °F 55.9 °F 30.1 in WSW 2 mph 2 mph 67 % 0 in
11:15 67.3 °F 56.5 °F 30.1 in SSW 4.6 mph 4.6 mph 68 % 0 in
11:20 67.5 °F 56.1 °F 30.1 in West 3.5 mph 3.5 mph 67 % 0 in
11:25 68 °F 55.8 °F 30.1 in WSW 3.5 mph 3.5 mph 65 % 0 in
11:30 68.2 °F 55.9 °F 30.1 in NNW 3.5 mph 3.5 mph 65 % 0 in
11:35 68.7 °F 56.5 °F 30.1 in West 2.3 mph 2.3 mph 65 % 0 in
11:40 69.4 °F 56.7 °F 30.1 in SW 0.9 mph   64 % 0 in
11:45 70.2 °F 57.4 °F 30.1 in WSW 5.8 mph 5.8 mph 64 % 0 in
11:46 70.2 °F 57.4 °F 30.1 in WNW 3.5 mph 3.5 mph 64 % 0 in
11:51 70.7 °F 57.6 °F 30.1 in SW 3.5 mph 3.5 mph 63 % 0 in
11:56 71.6 °F 57.9 °F 30.1 in WSW 3.5 mph 3.5 mph 62 % 0 in
12:01 71.8 °F 57.6 °F 30.1 in NNE 3.5 mph 3.5 mph 61 % 0 in
12:06 72.1 °F 57 °F 30.1 in SW 5.8 mph 5.8 mph 59 % 0 in
12:11 72.3 °F 57.2 °F 30.1 in WSW 7.4 mph 7.4 mph 59 % 0 in
12:16 72.5 °F 56.8 °F 30.1 in SE 2.3 mph 2.3 mph 58 % 0 in
12:21 73 °F 56.8 °F 30.1 in WSW 3.5 mph 3.5 mph 57 % 0 in
12:26 72.9 °F 56.7 °F 30.1 in West 2.3 mph 2.3 mph 57 % 0 in
12:31 72.5 °F 56.5 °F 30.1 in SW 4.6 mph 4.6 mph 57 % 0 in
12:36 72.7 °F 56.7 °F 30.1 in SW 3.5 mph 3.5 mph 57 % 0 in
12:41 72.3 °F 56.1 °F 30.1 in West 3.5 mph 3.5 mph 57 % 0 in
12:46 72 °F 55.9 °F 30.1 in West 3.6 mph 3.6 mph 57 % 0 in
12:51 71.2 °F 55.2 °F 30.1 in SW 3.5 mph 3.5 mph 57 % 0 in
12:56 71.1 °F 55.6 °F 30.1 in SW 4.6 mph 4.6 mph 58 % 0 in
13:01 70.3 °F 54.3 °F 30.1 in WSW 5.8 mph 5.8 mph 57 % 0 in
13:06 70.3 °F 54.3 °F 30.1 in West 3.8 mph 3.8 mph 57 % 0 in
13:11 70.7 °F 54.7 °F 30.1 in WSW 7.6 mph 7.6 mph 57 % 0 in
13:16 71.2 °F 54.7 °F 30.1 in WSW 5.8 mph 5.8 mph 56 % 0 in
13:21 71.8 °F 54.1 °F 30.1 in WNW 4.6 mph 4.6 mph 54 % 0 in
13:26 72.7 °F 55 °F 30.1 in WSW 3.5 mph 3.5 mph 54 % 0 in
13:31 72.9 °F 55.2 °F 30.1 in West 2.3 mph 2.3 mph 54 % 0 in
13:36 73.9 °F 56.1 °F 30.1 in SW 2.3 mph 2.3 mph 54 % 0 in
13:41 74.8 °F 56.7 °F 30.1 in WSW 2.6 mph 2.6 mph 53 % 0 in
13:46 74.3 °F 55.6 °F 30.1 in SW 4.6 mph 4.6 mph 52 % 0 in
13:51 74.1 °F 55.9 °F 30.1 in West 3.5 mph 3.5 mph 53 % 0 in
13:56 75.4 °F 55.9 °F 30.1 in WSW 6.9 mph 6.9 mph 51 % 0 in
14:01 75.4 °F 55.9 °F 30.1 in SSW 5.8 mph 5.8 mph 51 % 0 in
14:06 75.9 °F 55.9 °F 30.1 in SW 3.5 mph 3.5 mph 50 % 0 in
14:11 77 °F 55.8 °F 30.1 in SSE 4.6 mph 4.6 mph 48 % 0 in
14:16 77.2 °F 55.9 °F 30.1 in ENE 3.5 mph 3.5 mph 48 % 0 in
14:21 78.1 °F 56.8 °F 30.1 in SW 5.8 mph 5.8 mph 48 % 0 in
14:26 78.3 °F 57 °F 30.1 in SSW 3.5 mph 3.5 mph 48 % 0 in
14:31 78.8 °F 56.8 °F 30.1 in WNW 5.8 mph 5.8 mph 47 % 0 in
14:36 79 °F 57 °F 30.1 in SSE 5.8 mph 5.8 mph 47 % 0 in
14:41 79.5 °F 56.8 °F 30.1 in West 2.4 mph 2.4 mph 46 % 0 in
14:46 79.7 °F 56.5 °F 30.1 in SW 4.6 mph 4.6 mph 45 % 0 in
14:51 80.2 °F 57 °F 30.1 in South 5.8 mph 5.8 mph 45 % 0 in
14:56 80.4 °F 56.5 °F 30 in West 3.5 mph 3.5 mph 44 % 0 in
15:01 79.5 °F 55 °F 30 in SSW 3.5 mph 3.5 mph 43 % 0 in
15:06 79.7 °F 55.2 °F 30 in ESE 8.1 mph 8.1 mph 43 % 0 in
15:11 80.1 °F 55.6 °F 30 in West 3.5 mph 3.5 mph 43 % 0 in
15:16 80.2 °F 56.3 °F 30 in SSW 4.6 mph 4.6 mph 44 % 0 in
15:21 80.4 °F 55.9 °F 30 in WSW 8.1 mph 8.1 mph 43 % 0 in
15:26 80.8 °F 53.4 °F 30 in SE 4.6 mph 4.6 mph 39 % 0 in
15:31 81.1 °F 54.5 °F 30 in East 4.6 mph 4.6 mph 40 % 0 in
15:36 80.4 °F 54 °F 30 in ESE 2.3 mph 2.4 mph 40 % 0 in
15:41 80.4 °F 54 °F 30 in South 6.9 mph 6.9 mph 40 % 0 in
15:46 81.3 °F 54 °F 30 in WSW 5.8 mph 5.8 mph 39 % 0 in
15:51 81.1 °F 54.5 °F 30 in SW 8.1 mph 8.1 mph 40 % 0 in
15:56 81 °F 54.3 °F 30 in WSW 3.6 mph 3.6 mph 40 % 0 in
16:01 80.6 °F 54 °F 30 in SW 3.5 mph 3.5 mph 40 % 0 in
16:06 79.9 °F 54.1 °F 30 in SW 4.6 mph 4.6 mph 41 % 0 in
16:11 79.2 °F 52.9 °F 30 in East 2.3 mph 2.3 mph 40 % 0 in
16:16 78.4 °F 52.9 °F 30 in SE 4.6 mph 4.6 mph 41 % 0 in
16:21 79.2 °F 54.1 °F 30 in SW 2.9 mph 2.9 mph 42 % 0 in
16:26 80.2 °F 55.8 °F 30 in WSW 4.6 mph 4.6 mph 43 % 0 in
16:31 81.5 °F 55.6 °F 30 in SW 3.5 mph 3.5 mph 41 % 0 in
16:36 81.9 °F 56.5 °F 30 in WNW 3.5 mph 3.5 mph 42 % 0 in
16:41 82 °F 56.7 °F 30 in SW 8.1 mph 8.1 mph 42 % 0 in
16:46 81.5 °F 56.1 °F 30 in SSW 6.9 mph 6.9 mph 42 % 0 in
16:51 80.8 °F 56.1 °F 30 in WSW 6.9 mph 6.9 mph 43 % 0 in
16:56 81 °F 56.5 °F 30 in WSW 4.6 mph 4.6 mph 43 % 0 in
17:01 81.5 °F 57.6 °F 30 in SSW 5.8 mph 5.8 mph 44 % 0 in
17:06 81.1 °F 57.2 °F 30 in WSW 6.9 mph 6.9 mph 44 % 0 in
17:11 80.8 °F 56.8 °F 30 in South 3.5 mph 3.5 mph 44 % 0 in
17:16 81 °F 57.6 °F 30 in WSW 6.9 mph 6.9 mph 45 % 0 in
17:21 80.2 °F 57.6 °F 30 in SSE 6.9 mph 6.9 mph 46 % 0 in
17:26 80.8 °F 57.6 °F 30 in SW 5.8 mph 5.8 mph 45 % 0 in
17:31 80.8 °F 57.6 °F 30 in SW 8.1 mph 8.1 mph 45 % 0 in
17:36 79.9 °F 57.4 °F 30 in SSW 5.8 mph 5.8 mph 46 % 0 in
17:41 80.1 °F 57.4 °F 30 in SW 8.1 mph 8.1 mph 46 % 0 in
17:46 80.4 °F 57.7 °F 30 in WSW 5.8 mph 5.8 mph 46 % 0 in
17:51 81.1 °F 57.7 °F 30 in WSW 5.8 mph 5.8 mph 45 % 0 in
17:56 80.8 °F 56.8 °F 30 in SW 5.8 mph 5.8 mph 44 % 0 in
18:01 80.4 °F 56.5 °F 30 in SSW 6.9 mph 6.9 mph 44 % 0 in
18:06 80.2 °F 56.3 °F 30 in WSW 5.8 mph 5.8 mph 44 % 0 in
18:11 80.1 °F 55.6 °F 30 in SSW 5.8 mph 5.8 mph 43 % 0 in
18:16 79.7 °F 55.2 °F 30 in SW 8.1 mph 8.1 mph 43 % 0 in
18:21 79.2 °F 54.7 °F 30 in South 5.8 mph 5.8 mph 43 % 0 in
18:26 79.5 °F 55.8 °F 30 in South 5.8 mph 5.8 mph 44 % 0 in
18:31 79.2 °F 54.7 °F 30 in SW 5.8 mph 5.8 mph 43 % 0 in
18:36 79.2 °F 54.7 °F 30 in WSW 5.8 mph 5.8 mph 43 % 0 in
18:41 79 °F 55.2 °F 30 in WSW 6 mph 6 mph 44 % 0 in
18:46 78.3 °F 54 °F 30 in SW 5.8 mph 5.8 mph 43 % 0 in
18:51 78.1 °F 53.1 °F 30 in SW 8.5 mph 8.5 mph 42 % 0 in
18:56 77.9 °F 53.6 °F 30 in South 5.8 mph 5.8 mph 43 % 0 in
19:01 77.9 °F 54.1 °F 30 in WSW 6 mph 6 mph 44 % 0 in
19:02 77.9 °F 54.1 °F 30 in South 6 mph 6 mph 44 % 0 in
19:07 77.4 °F 53.8 °F 30 in SSW 4.6 mph 4.6 mph 44 % 0 in
19:10 68.5 °F 58.5 °F 30.1 in ESE 1 mph 2 mph 70 % 0 in
19:12 76.8 °F 54 °F 30 in SSW 5.8 mph 5.8 mph 45 % 0 in
19:17 76.6 °F 53.8 °F 30 in SW 4.6 mph 4.6 mph 45 % 0 in
19:20 68.5 °F 58.5 °F 30.1 in East 1 mph 2 mph 70 % 0 in
19:22 76.1 °F 53.8 °F 30 in SW 5.8 mph 5.8 mph 46 % 0 in
19:27 75.7 °F 53.4 °F 30 in WSW 5.8 mph 5.8 mph 46 % 0 in
19:30 68.4 °F 58.3 °F 30.1 in Calm   1 mph 70 % 0 in
19:32 75.6 °F 54 °F 30 in SSW 6 mph 6 mph 47 % 0 in
19:37 75.2 °F 53.6 °F 30 in South 3.5 mph 3.5 mph 47 % 0 in
19:40 68.2 °F 57.9 °F 30.1 in Calm   1 mph 70 % 0 in
19:42 75 °F 54 °F 30 in SSW 5.8 mph 5.8 mph 48 % 0 in
19:47 74.7 °F 53.8 °F 30 in SW 2.4 mph 2.4 mph 48 % 0 in
19:50 67.8 °F 58.5 °F 30.1 in North 1 mph 2 mph 72 % 0 in
19:52 74.7 °F 53.8 °F 30 in SSW 5.8 mph 5.8 mph 48 % 0 in
19:57 74.3 °F 53.2 °F 30 in South 1.6 mph 1.6 mph 48 % 0 in
20:00 67.3 °F 57.9 °F 30.1 in Calm     72 % 0 in
20:02 74.1 °F 53.8 °F 30 in SSW 2.3 mph 3.3 mph 49 % 0 in
20:07 73.8 °F 54 °F 30 in South 3.5 mph 3.5 mph 50 % 0 in
20:10 67.3 °F 58.3 °F 30.1 in Calm     73 % 0 in
20:12 73.6 °F 53.8 °F 30 in Calm     50 % 0 in
20:17 73.2 °F 55 °F 30 in ENE 2.3 mph 2.3 mph 53 % 0 in
20:20 66.6 °F 57.6 °F 30.1 in Calm   2 mph 73 % 0 in
20:22 72.3 °F 56.7 °F 30 in SW 5.8 mph 5.8 mph 58 % 0 in
20:27 72 °F 56.8 °F 30 in ESE 8.1 mph 8.1 mph 59 % 0 in
20:30 66.4 °F 57.7 °F 30.1 in Calm   1 mph 74 % 0 in
20:32 71.6 °F 57.4 °F 30 in ESE 5.8 mph 5.8 mph 61 % 0 in
20:37 71.2 °F 57.6 °F 30 in ESE 5.8 mph 5.8 mph 62 % 0 in
20:40 66.6 °F 57.9 °F 30.1 in SW 1 mph 2 mph 74 % 0 in
20:42 71.1 °F 57.4 °F 30 in East 3.8 mph 4.3 mph 62 % 0 in
20:47 71.1 °F 58.3 °F 30 in ESE 8.1 mph 8.1 mph 64 % 0 in
20:50 65.8 °F 57.7 °F 30.1 in SSW 2 mph 2 mph 75 % 0 in
20:52 70.7 °F 57.9 °F 30 in East 4.6 mph 4.6 mph 64 % 0 in
20:57 70.7 °F 58.5 °F 30 in ESE 4.3 mph 4.3 mph 65 % 0 in
21:00 66 °F 58.3 °F 30.1 in Calm   2 mph 76 % 0 in
21:02 70.5 °F 58.6 °F 30 in ENE 5.9 mph 5.9 mph 66 % 0 in
21:07 70.3 °F 57.9 °F 30 in East 4.6 mph 4.6 mph 65 % 0 in
21:10 66.2 °F 57.9 °F 30.1 in Calm     75 % 0 in
21:12 70.3 °F 58.5 °F 30 in ESE 5.8 mph 5.8 mph 66 % 0 in
21:17 70.3 °F 58.5 °F 30 in ESE 4.6 mph 4.6 mph 66 % 0 in
21:20 66.4 °F 56.7 °F 30.1 in Calm   1 mph 71 % 0 in
21:22 70.3 °F 58.5 °F 30 in ESE 2.4 mph 3.3 mph 66 % 0 in
21:27 70.3 °F 58.5 °F 30 in ESE 2.4 mph 3.3 mph 66 % 0 in
21:30 66.9 °F 55.6 °F 30.1 in NNE 1 mph 1 mph 67 % 0 in
21:32 70.3 °F 58.5 °F 30 in ESE 2.4 mph 3.3 mph 66 % 0 in
21:37 70.3 °F 58.5 °F 30 in ESE 2.4 mph 3.3 mph 66 % 0 in
21:40 66.9 °F 55.2 °F 30.1 in NNE 1 mph 2 mph 66 % 0 in
21:42 70.3 °F 58.5 °F 30 in ESE 2.4 mph 3.3 mph 66 % 0 in
21:47 70.3 °F 58.5 °F 30 in ESE 2.4 mph 3.3 mph 66 % 0 in
21:50 66.6 °F 54.3 °F 30.1 in WSW 1 mph 2 mph 65 % 0 in
21:52 70.3 °F 58.5 °F 30 in ESE 2.4 mph 3.3 mph 66 % 0 in
21:57 70.3 °F 58.5 °F 30 in ESE 2.4 mph 3.3 mph 66 % 0 in
22:00 66.2 °F 53.8 °F 30 in WSW 2 mph 2 mph 64 % 0 in
22:02 70.3 °F 58.5 °F 30 in ESE 2.4 mph 3.3 mph 66 % 0 in
22:07 70.3 °F 58.5 °F 30 in ESE 2.4 mph 3.3 mph 66 % 0 in
22:10 66.2 °F 52 °F 30 in WSW 1 mph 3 mph 60 % 0 in
22:12 70.3 °F 58.5 °F 30 in ESE 2.4 mph 3.3 mph 66 % 0 in
22:17 70.3 °F 58.5 °F 30 in ESE 2.4 mph 3.3 mph 66 % 0 in
22:20 66 °F 51.3 °F 30.1 in WSW 3 mph 3 mph 59 % 0 in
22:22 70.3 °F 58.5 °F 30 in ESE 2.4 mph 3.3 mph 66 % 0 in
22:27 70.3 °F 58.5 °F 30 in ESE 2.4 mph 3.3 mph 66 % 0 in
22:30 65.5 °F 50.7 °F 30.1 in Calm   2 mph 59 % 0 in
22:32 70.3 °F 58.5 °F 30 in ESE 2.4 mph 3.3 mph 66 % 0 in
22:37 70.3 °F 58.5 °F 30 in ESE 2.4 mph 3.3 mph 66 % 0 in
22:40 65.5 °F 50.4 °F 30.1 in WSW 2 mph 3 mph 58 % 0 in
22:42 70.3 °F 58.5 °F 30 in ESE 2.4 mph 3.3 mph 66 % 0 in
22:47 70.3 °F 58.5 °F 30 in ESE 2.4 mph 3.3 mph 66 % 0 in
22:50 65.3 °F 49.3 °F 30.1 in West 2 mph 3 mph 56 % 0 in
22:52 70.3 °F 58.5 °F 30 in ESE 2.4 mph 3.3 mph 66 % 0 in
22:57 70.3 °F 58.5 °F 30 in ESE 2.4 mph 3.3 mph 66 % 0 in
23:00 64.9 °F 48.9 °F 30 in West 2 mph 4 mph 56 % 0 in
23:02 70.3 °F 58.5 °F 30 in ESE 2.4 mph 3.3 mph 66 % 0 in
23:07 70.3 °F 58.5 °F 30 in ESE 2.4 mph 3.3 mph 66 % 0 in
23:10 64.4 °F 47.5 °F 30 in West 1 mph 3 mph 54 % 0 in
23:12 70.3 °F 58.5 °F 30 in ESE 2.4 mph 3.3 mph 66 % 0 in
23:17 70.3 °F 58.5 °F 30 in ESE 2.4 mph 3.3 mph 66 % 0 in
23:20 63.9 °F 47.5 °F 30.1 in WNW 2 mph 3 mph 55 % 0 in
23:22 70.3 °F 58.5 °F 30 in ESE 2.4 mph 3.3 mph 66 % 0 in
23:27 70.3 °F 58.5 °F 30 in ESE 2.4 mph 3.3 mph 66 % 0 in
23:30 63.3 °F 46.9 °F 30.1 in West 1 mph 3 mph 55 % 0 in
23:32 70.3 °F 58.5 °F 30 in ESE 2.4 mph 3.3 mph 66 % 0 in
23:37 70.3 °F 58.5 °F 30 in ESE 2.4 mph 3.3 mph 66 % 0 in
23:40 62.6 °F 46.8 °F 30.1 in WSW 1 mph 3 mph 56 % 0 in
23:42 70.3 °F 58.5 °F 30 in ESE 2.4 mph 3.3 mph 66 % 0 in
23:47 70.3 °F 58.5 °F 30 in ESE 2.4 mph 3.3 mph 66 % 0 in
23:50 62.1 °F 46.6 °F 30.1 in WSW 1 mph 3 mph 57 % 0 in
23:52 70.3 °F 58.5 °F 30 in ESE 2.4 mph 3.3 mph 66 % 0 in
23:57 70.3 °F 58.5 °F 30 in ESE 2.4 mph 3.3 mph 66 % 0 in
Meteo Sesrovires
Elogis d' Weather Underground - 3.75 mb

Guio original per  Jim McMurry - jmcmurry@mwt.net Adaptat per a la plantilla per  Wim van der Kuil - Leuven-Template.eu

Trobareu la nostra informacio del temps tambe a:

Weather Underground

AWEKAS